Time;durP1;ratioP1;P1;durP2;ratioP2;P2;SDS_P1;SDS_P2;PMS_P1;PMS_P2;Temp;Humidity;BMP_temperature;BMP_pressure;BME280_temperature;BME280_humidity;BME280_pressure;Samples;Min_cycle;Max_cycle;Signal;HPM_P1;HPM_P2
2022/02/23 00:01:59;;;;;;;;;;;;;;;;;;4982365;28;19953;-70
2022/02/23 00:04:26;;;;;;;;;;;;;;;;;;4989884;28;19926;-69
2022/02/23 00:06:53;;;;;;;;;;;;;;;;;;4984134;28;19933;-70
2022/02/23 00:09:20;;;;;;;;;;;;;;;;;;4985216;28;20316;-69
2022/02/23 00:11:47;;;;;;;;;;;;;;;;;;4987747;28;19934;-70
2022/02/23 00:14:14;;;;;;;;;;;;;;;;;;4989114;28;19932;-69
2022/02/23 00:16:41;;;;;;;;;;;;;;;;;;4986015;28;19925;-70
2022/02/23 00:19:08;;;;;;;;;;;;;;;;;;4984343;28;19984;-69
2022/02/23 00:21:36;;;;;;;;;;;;;;;;;;4985540;28;19926;-70
2022/02/23 00:24:03;;;;;;;;;;;;;;;;;;4982891;28;19934;-70
2022/02/23 00:26:31;;;;;;;;;;;;;;;;;;4986166;28;19984;-69
2022/02/23 00:28:58;;;;;;;;;;;;;;;;;;4989359;28;20400;-69
2022/02/23 00:31:25;;;;;;;;;;;;;;;;;;4987365;28;19933;-69
2022/02/23 00:33:52;;;;;;;;;;;;;;;;;;4992124;28;20324;-69
2022/02/23 00:36:19;;;;;;;;;;;;;;;;;;4991142;28;20409;-69
2022/02/23 00:38:46;;;;;;;;;;;;;;;;;;4989782;28;19925;-69
2022/02/23 00:41:13;;;;;;;;;;;;;;;;;;4993375;28;19926;-69
2022/02/23 00:43:40;;;;;;;;;;;;;;;;;;4986799;28;20412;-70
2022/02/23 00:46:06;;;;;;;;;;;;;;;;;;4986113;28;19930;-69
2022/02/23 00:48:33;;;;;;;;;;;;;;;;;;4986973;28;19934;-69
2022/02/23 00:51:00;;;;;;;;;;;;;;;;;;4993264;28;19932;-70
2022/02/23 00:53:27;;;;;;;;;;;;;;;;;;4984760;28;19934;-70
2022/02/23 00:55:54;;;;;;;;;;;;;;;;;;4989964;28;20009;-70
2022/02/23 00:58:21;;;;;;;;;;;;;;;;;;4984137;28;19933;-70
2022/02/23 01:00:48;;;;;;;;;;;;;;;;;;4991927;28;19926;-69
2022/02/23 01:03:15;;;;;;;;;;;;;;;;;;4988471;28;20038;-70
2022/02/23 01:05:42;;;;;;;;;;;;;;;;;;4983575;28;20024;-69
2022/02/23 01:08:09;;;;;;;;;;;;;;;;;;4983504;28;19949;-69
2022/02/23 01:10:36;;;;;;;;;;;;;;;;;;4981662;28;19933;-69
2022/02/23 01:13:03;;;;;;;;;;;;;;;;;;4986859;28;19926;-70
2022/02/23 01:15:30;;;;;;;;;;;;;;;;;;4988529;28;19960;-70
2022/02/23 01:17:57;;;;;;;;;;;;;;;;;;4984628;28;19932;-70
2022/02/23 01:20:24;;;;;;;;;;;;;;;;;;4988544;28;19933;-70
2022/02/23 01:22:55;;;;;;;;;;;;;;;;;;4989900;28;19926;-70
2022/02/23 01:25:24;;;;;;;;;;;;;;;;;;4985387;28;20013;-69
2022/02/23 01:27:51;;;;;;;;;;;;;;;;;;4987933;28;20013;-69
2022/02/23 01:30:18;;;;;;;;;;;;;;;;;;4988718;28;20394;-70
2022/02/23 01:32:45;;;;;;;;;;;;;;;;;;4986642;28;20525;-69
2022/02/23 01:35:12;;;;;;;;;;;;;;;;;;4987917;28;20582;-69
2022/02/23 01:37:39;;;;;;;;;;;;;;;;;;4988634;28;19925;-69
2022/02/23 01:40:05;;;;;;;;;;;;;;;;;;4988317;28;20305;-69
2022/02/23 01:42:32;;;;;;;;;;;;;;;;;;4987650;28;20407;-69
2022/02/23 01:44:59;;;;;;;;;;;;;;;;;;4987482;28;19934;-69
2022/02/23 01:47:26;;;;;;;;;;;;;;;;;;4987361;28;19932;-69
2022/02/23 01:49:56;;;;;;;;;;;;;;;;;;4989824;28;19926;-69
2022/02/23 01:52:25;;;;;;;;;;;;;;;;;;4985094;28;19962;-69
2022/02/23 01:54:52;;;;;;;;;;;;;;;;;;4990158;28;19926;-69
2022/02/23 01:57:19;;;;;;;;;;;;;;;;;;4987318;28;19932;-69
2022/02/23 01:59:46;;;;;;;;;;;;;;;;;;4988686;28;19933;-69
2022/02/23 02:02:13;;;;;;;;;;;;;;;;;;4985003;28;19926;-69
2022/02/23 02:04:40;;;;;;;;;;;;;;;;;;4988992;28;19936;-69
2022/02/23 02:07:07;;;;;;;;;;;;;;;;;;4988456;28;19932;-70
2022/02/23 02:09:33;;;;;;;;;;;;;;;;;;4986908;28;19926;-70
2022/02/23 02:12:00;;;;;;;;;;;;;;;;;;4985454;28;20234;-71
2022/02/23 02:14:27;;;;;;;;;;;;;;;;;;4985569;28;19930;-70
2022/02/23 02:16:54;;;;;;;;;;;;;;;;;;4985493;28;19930;-70
2022/02/23 02:19:21;;;;;;;;;;;;;;;;;;4988106;28;20017;-70
2022/02/23 02:21:48;;;;;;;;;;;;;;;;;;4984863;28;19932;-70
2022/02/23 02:24:15;;;;;;;;;;;;;;;;;;4986834;28;19926;-70
2022/02/23 02:26:42;;;;;;;;;;;;;;;;;;4987758;28;20307;-69
2022/02/23 02:29:09;;;;;;;;;;;;;;;;;;4988150;28;20389;-70
2022/02/23 02:31:36;;;;;;;;;;;;;;;;;;4989928;28;19934;-70
2022/02/23 02:34:03;;;;;;;;;;;;;;;;;;4987619;28;19925;-72
2022/02/23 02:36:30;;;;;;;;;;;;;;;;;;4989585;28;19929;-71
2022/02/23 02:38:57;;;;;;;;;;;;;;;;;;4987096;28;20289;-70
2022/02/23 02:41:23;;;;;;;;;;;;;;;;;;4980517;28;19937;-73
2022/02/23 02:43:50;;;;;;;;;;;;;;;;;;4987908;28;19930;-71
2022/02/23 02:46:17;;;;;;;;;;;;;;;;;;4987877;28;19925;-71
2022/02/23 02:48:44;;;;;;;;;;;;;;;;;;4985704;28;19926;-71
2022/02/23 02:51:11;;;;;;;;;;;;;;;;;;4987064;28;20305;-71
2022/02/23 02:53:38;;;;;;;;;;;;;;;;;;4989196;28;19937;-71
2022/02/23 02:56:05;;;;;;;;;;;;;;;;;;4980601;28;19926;-71
2022/02/23 02:58:32;;;;;;;;;;;;;;;;;;4983272;28;19934;-71
2022/02/23 03:00:59;;;;;;;;;;;;;;;;;;4984376;28;19973;-71
2022/02/23 03:03:26;;;;;;;;;;;;;;;;;;4985946;28;19927;-71
2022/02/23 03:05:53;;;;;;;;;;;;;;;;;;4983200;28;19934;-71
2022/02/23 03:08:20;;;;;;;;;;;;;;;;;;4979593;28;20441;-71
2022/02/23 03:10:47;;;;;;;;;;;;;;;;;;4988234;28;19929;-71
2022/02/23 03:13:14;;;;;;;;;;;;;;;;;;4981032;28;19953;-71
2022/02/23 03:15:40;;;;;;;;;;;;;;;;;;4985462;28;19937;-71
2022/02/23 03:18:07;;;;;;;;;;;;;;;;;;4988541;28;19933;-71
2022/02/23 03:20:34;;;;;;;;;;;;;;;;;;4994641;28;19937;-71
2022/02/23 03:23:01;;;;;;;;;;;;;;;;;;4984277;28;19926;-71
2022/02/23 03:25:28;;;;;;;;;;;;;;;;;;4985542;28;19929;-71
2022/02/23 03:27:55;;;;;;;;;;;;;;;;;;4986233;28;19932;-71
2022/02/23 03:30:22;;;;;;;;;;;;;;;;;;4988620;28;20325;-71
2022/02/23 03:32:49;;;;;;;;;;;;;;;;;;4983904;28;19925;-71
2022/02/23 03:35:16;;;;;;;;;;;;;;;;;;4989413;28;19933;-71
2022/02/23 03:37:43;;;;;;;;;;;;;;;;;;4986130;28;19945;-71
2022/02/23 03:40:09;;;;;;;;;;;;;;;;;;4923763;28;1817715;-71
2022/02/23 03:42:36;;;;;;;;;;;;;;;;;;4987243;28;19930;-70
2022/02/23 03:45:03;;;;;;;;;;;;;;;;;;4989210;28;20278;-70
2022/02/23 03:47:30;;;;;;;;;;;;;;;;;;4980221;28;20328;-71
2022/02/23 03:49:57;;;;;;;;;;;;;;;;;;4987460;28;20312;-71
2022/02/23 03:52:24;;;;;;;;;;;;;;;;;;4987257;28;19925;-71
2022/02/23 03:54:51;;;;;;;;;;;;;;;;;;4988609;28;19973;-71
2022/02/23 03:57:18;;;;;;;;;;;;;;;;;;4988607;28;19964;-71
2022/02/23 03:59:45;;;;;;;;;;;;;;;;;;4988221;28;20432;-71
2022/02/23 04:02:12;;;;;;;;;;;;;;;;;;4986129;28;19926;-71
2022/02/23 04:04:40;;;;;;;;;;;;;;;;;;4992961;28;19992;-71
2022/02/23 04:07:07;;;;;;;;;;;;;;;;;;4993729;28;19973;-71
2022/02/23 04:09:34;;;;;;;;;;;;;;;;;;4992400;28;20031;-71
2022/02/23 04:12:01;;;;;;;;;;;;;;;;;;4989647;28;19926;-71
2022/02/23 04:14:28;;;;;;;;;;;;;;;;;;4991780;28;19925;-71
2022/02/23 04:16:55;;;;;;;;;;;;;;;;;;4993105;28;20016;-71
2022/02/23 04:19:22;;;;;;;;;;;;;;;;;;4986545;28;19933;-70
2022/02/23 04:21:49;;;;;;;;;;;;;;;;;;4995201;28;19925;-71
2022/02/23 04:24:16;;;;;;;;;;;;;;;;;;4987394;28;19933;-71
2022/02/23 04:26:43;;;;;;;;;;;;;;;;;;4993222;28;20392;-71
2022/02/23 04:29:10;;;;;;;;;;;;;;;;;;4989267;28;19946;-71
2022/02/23 04:31:37;;;;;;;;;;;;;;;;;;4996716;28;19925;-71
2022/02/23 04:34:04;;;;;;;;;;;;;;;;;;4993346;28;19950;-71
2022/02/23 04:36:31;;;;;;;;;;;;;;;;;;4992304;28;19926;-71
2022/02/23 04:38:58;;;;;;;;;;;;;;;;;;4987341;28;19925;-71
2022/02/23 04:41:25;;;;;;;;;;;;;;;;;;4990600;28;20305;-71
2022/02/23 04:43:52;;;;;;;;;;;;;;;;;;4991496;28;19926;-71
2022/02/23 04:46:19;;;;;;;;;;;;;;;;;;4993463;28;19932;-71
2022/02/23 04:48:46;;;;;;;;;;;;;;;;;;4987293;28;19926;-71
2022/02/23 04:51:12;;;;;;;;;;;;;;;;;;4986834;28;19973;-71
2022/02/23 04:53:39;;;;;;;;;;;;;;;;;;4991642;28;20552;-71
2022/02/23 04:56:06;;;;;;;;;;;;;;;;;;4988464;28;19937;-71
2022/02/23 04:58:33;;;;;;;;;;;;;;;;;;4990961;28;20373;-71
2022/02/23 05:01:00;;;;;;;;;;;;;;;;;;4985858;28;20297;-71
2022/02/23 05:03:27;;;;;;;;;;;;;;;;;;4988022;28;20419;-71
2022/02/23 05:05:54;;;;;;;;;;;;;;;;;;4989820;28;19933;-71
2022/02/23 05:08:21;;;;;;;;;;;;;;;;;;4987109;28;19953;-71
2022/02/23 05:10:48;;;;;;;;;;;;;;;;;;4985595;28;20389;-70
2022/02/23 05:13:15;;;;;;;;;;;;;;;;;;4987570;28;19926;-71
2022/02/23 05:15:42;;;;;;;;;;;;;;;;;;4986004;28;19932;-71
2022/02/23 05:18:09;;;;;;;;;;;;;;;;;;4984368;28;19926;-71
2022/02/23 05:20:36;;;;;;;;;;;;;;;;;;4989655;28;19932;-70
2022/02/23 05:23:03;;;;;;;;;;;;;;;;;;4985843;28;19940;-70
2022/02/23 05:25:29;;;;;;;;;;;;;;;;;;4987447;28;20308;-71
2022/02/23 05:27:56;;;;;;;;;;;;;;;;;;4987813;28;19926;-70
2022/02/23 05:30:23;;;;;;;;;;;;;;;;;;4985794;28;19926;-71
2022/02/23 05:32:50;;;;;;;;;;;;;;;;;;4989910;28;19956;-70
2022/02/23 05:35:17;;;;;;;;;;;;;;;;;;4994119;28;19936;-71
2022/02/23 05:37:44;;;;;;;;;;;;;;;;;;4986582;28;19933;-70
2022/02/23 05:40:11;;;;;;;;;;;;;;;;;;4997151;28;19926;-70
2022/02/23 05:42:38;;;;;;;;;;;;;;;;;;4994170;28;20016;-71
2022/02/23 05:45:05;;;;;;;;;;;;;;;;;;4998034;28;19925;-71
2022/02/23 05:47:32;;;;;;;;;;;;;;;;;;4989038;28;19948;-71
2022/02/23 05:49:59;;;;;;;;;;;;;;;;;;4990913;28;19989;-70
2022/02/23 05:52:26;;;;;;;;;;;;;;;;;;4993431;28;19933;-70
2022/02/23 05:54:53;;;;;;;;;;;;;;;;;;4990083;28;19957;-71
2022/02/23 05:57:20;;;;;;;;;;;;;;;;;;4989799;28;20008;-71
2022/02/23 05:59:47;;;;;;;;;;;;;;;;;;4991492;28;19941;-72
2022/02/23 06:02:14;;;;;;;;;;;;;;;;;;4988979;28;19936;-70
2022/02/23 06:04:41;;;;;;;;;;;;;;;;;;4987236;28;19926;-70
2022/02/23 06:07:08;;;;;;;;;;;;;;;;;;4991259;28;19926;-70
2022/02/23 06:09:35;;;;;;;;;;;;;;;;;;4980901;28;19926;-72
2022/02/23 06:12:02;;;;;;;;;;;;;;;;;;4985986;28;19934;-73
2022/02/23 06:14:31;;;;;;;;;;;;;;;;;;4989645;28;20016;-73
2022/02/23 06:16:58;;;;;;;;;;;;;;;;;;4990811;28;19926;-73
2022/02/23 06:19:25;;;;;;;;;;;;;;;;;;4987344;28;19926;-74
2022/02/23 06:21:52;;;;;;;;;;;;;;;;;;4986234;28;19930;-74
2022/02/23 06:24:19;;;;;;;;;;;;;;;;;;4985374;28;20352;-74
2022/02/23 06:26:46;;;;;;;;;;;;;;;;;;4989315;28;19933;-74
2022/02/23 06:29:13;;;;;;;;;;;;;;;;;;4985176;28;20335;-74
2022/02/23 06:31:40;;;;;;;;;;;;;;;;;;4989538;28;19926;-74
2022/02/23 06:34:07;;;;;;;;;;;;;;;;;;4990520;28;19958;-74
2022/02/23 06:36:34;;;;;;;;;;;;;;;;;;4986026;28;20016;-74
2022/02/23 06:39:01;;;;;;;;;;;;;;;;;;4984232;28;19925;-73
2022/02/23 06:41:28;;;;;;;;;;;;;;;;;;4984123;28;19968;-74
2022/02/23 06:43:56;;;;;;;;;;;;;;;;;;4992469;28;20361;-74
2022/02/23 06:46:23;;;;;;;;;;;;;;;;;;4994144;28;19930;-74
2022/02/23 06:48:50;;;;;;;;;;;;;;;;;;4997592;28;19929;-73
2022/02/23 06:51:19;;;;;;;;;;;;;;;;;;4985223;28;20215;-74
2022/02/23 06:53:46;;;;;;;;;;;;;;;;;;4985865;28;19930;-74
2022/02/23 06:56:13;;;;;;;;;;;;;;;;;;4988955;28;19926;-74
2022/02/23 06:58:40;;;;;;;;;;;;;;;;;;4987053;28;20354;-74
2022/02/23 07:01:08;;;;;;;;;;;;;;;;;;4986505;28;19981;-73
2022/02/23 07:03:35;;;;;;;;;;;;;;;;;;4985333;28;20293;-73
2022/02/23 07:06:02;;;;;;;;;;;;;;;;;;4989024;28;19925;-74
2022/02/23 07:08:29;;;;;;;;;;;;;;;;;;4986615;28;19927;-74
2022/02/23 07:10:56;;;;;;;;;;;;;;;;;;4985721;28;19949;-73
2022/02/23 07:13:23;;;;;;;;;;;;;;;;;;4986035;28;19926;-73
2022/02/23 07:15:50;;;;;;;;;;;;;;;;;;4990391;28;19930;-74
2022/02/23 07:18:17;;;;;;;;;;;;;;;;;;4987037;28;19925;-73
2022/02/23 07:20:44;;;;;;;;;;;;;;;;;;4986629;28;19969;-72
2022/02/23 07:23:11;;;;;;;;;;;;;;;;;;4992175;28;19930;-74
2022/02/23 07:25:38;;;;;;;;;;;;;;;;;;4986044;28;19934;-74
2022/02/23 07:28:07;;;;;;;;;;;;;;;;;;4990965;28;19961;-73
2022/02/23 07:33:18;;;;;;;;;;;;;;;;;;4991606;28;20064;-74
2022/02/23 07:35:45;;;;;;;;;;;;;;;;;;4995519;28;19925;-74
2022/02/23 07:38:14;;;;;;;;;;;;;;;;;;4996081;28;20282;-74
2022/02/23 07:40:41;;;;;;;;;;;;;;;;;;4987665;28;19930;-72
2022/02/23 07:43:08;;;;;;;;;;;;;;;;;;4994994;28;20301;-73
2022/02/23 07:45:36;;;;;;;;;;;;;;;;;;4989591;28;19927;-74
2022/02/23 07:48:03;;;;;;;;;;;;;;;;;;4990115;28;20345;-73
2022/02/23 07:50:31;;;;;;;;;;;;;;;;;;4990583;28;19973;-73
2022/02/23 07:52:58;;;;;;;;;;;;;;;;;;4990101;28;19933;-73
2022/02/23 07:55:26;;;;;;;;;;;;;;;;;;4991485;28;19925;-73
2022/02/23 07:57:53;;;;;;;;;;;;;;;;;;4990562;28;19926;-73
2022/02/23 08:00:20;;;;;;;;;;;;;;;;;;4988617;28;19925;-73
2022/02/23 08:02:47;;;;;;;;;;;;;;;;;;4990099;28;19987;-73
2022/02/23 08:05:14;;;;;;;;;;;;;;;;;;4984277;28;19926;-72
2022/02/23 08:07:41;;;;;;;;;;;;;;;;;;4988591;28;19934;-72
2022/02/23 08:10:09;;;;;;;;;;;;;;;;;;4984751;28;19932;-72
2022/02/23 08:12:36;;;;;;;;;;;;;;;;;;4980639;28;19933;-74
2022/02/23 08:20:29;;;;;;;;;;;;;;;;;;4990317;28;20457;-73
2022/02/23 08:22:56;;;;;;;;;;;;;;;;;;4994265;28;19933;-73
2022/02/23 08:25:23;;;;;;;;;;;;;;;;;;4994290;28;20365;-73
2022/02/23 08:27:50;;;;;;;;;;;;;;;;;;4993128;28;19926;-73
2022/02/23 08:30:17;;;;;;;;;;;;;;;;;;4987815;28;20016;-73
2022/02/23 08:32:44;;;;;;;;;;;;;;;;;;4988073;28;19926;-73
2022/02/23 08:35:11;;;;;;;;;;;;;;;;;;4989674;28;19937;-73
2022/02/23 08:37:38;;;;;;;;;;;;;;;;;;4991898;28;19933;-73
2022/02/23 08:40:05;;;;;;;;;;;;;;;;;;4976308;28;19926;-73
2022/02/23 08:42:34;;;;;;;;;;;;;;;;;;4970634;28;19977;-75
2022/02/23 08:45:01;;;;;;;;;;;;;;;;;;4979246;28;19926;-73
2022/02/23 08:47:29;;;;;;;;;;;;;;;;;;4982108;28;19932;-76
2022/02/23 08:49:56;;;;;;;;;;;;;;;;;;4982804;28;19934;-68
2022/02/23 08:52:24;;;;;;;;;;;;;;;;;;4982068;28;19926;-69
2022/02/23 08:54:51;;;;;;;;;;;;;;;;;;4988896;28;19953;-68
2022/02/23 08:57:18;;;;;;;;;;;;;;;;;;4986889;28;19933;-66
2022/02/23 08:59:45;;;;;;;;;;;;;;;;;;4985158;28;19926;-67
2022/02/23 09:02:12;;;;;;;;;;;;;;;;;;4983110;28;19934;-67
2022/02/23 09:04:39;;;;;;;;;;;;;;;;;;4988077;28;19936;-67
2022/02/23 09:07:06;;;;;;;;;;;;;;;;;;4980241;28;19926;-67
2022/02/23 09:09:33;;;;;;;;;;;;;;;;;;4986701;28;19926;-68
2022/02/23 09:12:00;;;;;;;;;;;;;;;;;;4987826;28;19926;-68
2022/02/23 09:14:27;;;;;;;;;;;;;;;;;;4982240;28;19926;-69
2022/02/23 09:16:54;;;;;;;;;;;;;;;;;;4982243;28;19926;-68
2022/02/23 09:19:21;;;;;;;;;;;;;;;;;;4983289;28;19952;-68
2022/02/23 09:21:48;;;;;;;;;;;;;;;;;;4985406;28;20021;-73
2022/02/23 09:24:15;;;;;;;;;;;;;;;;;;4990939;28;19926;-72
2022/02/23 09:26:42;;;;;;;;;;;;;;;;;;4987455;28;19937;-72
2022/02/23 09:29:09;;;;;;;;;;;;;;;;;;4986186;28;20449;-73
2022/02/23 09:31:36;;;;;;;;;;;;;;;;;;4991268;28;19926;-73
2022/02/23 09:34:03;;;;;;;;;;;;;;;;;;4984574;28;19957;-73
2022/02/23 09:36:30;;;;;;;;;;;;;;;;;;4974541;28;20381;-73
2022/02/23 09:38:57;;;;;;;;;;;;;;;;;;4980558;28;19981;-73
2022/02/23 09:41:24;;;;;;;;;;;;;;;;;;4987614;28;19929;-72
2022/02/23 09:43:54;;;;;;;;;;;;;;;;;;4989201;28;19933;-72
2022/02/23 09:46:21;;;;;;;;;;;;;;;;;;4988801;28;19976;-71
2022/02/23 09:48:48;;;;;;;;;;;;;;;;;;4988950;28;19926;-71
2022/02/23 09:51:15;;;;;;;;;;;;;;;;;;4990660;28;19932;-73
2022/02/23 09:53:45;;;;;;;;;;;;;;;;;;4982802;28;20027;-72
2022/02/23 09:56:12;;;;;;;;;;;;;;;;;;4981206;28;20325;-73
2022/02/23 09:58:40;;;;;;;;;;;31.90;39.70;;;;;;4987777;28;19969;-73
2022/02/23 10:01:08;;;;;;;;;;;31.90;40.30;;;;;;4976597;28;19930;-72
2022/02/23 10:03:35;;;;;;;;;;;;;;;;;;4979967;28;19969;-73
2022/02/23 10:06:02;;;;;;;;;;;;;;;;;;4988037;28;20152;-72
2022/02/23 10:08:31;;;;;;;;;;;;;;;;;;4984984;28;20768;-72
2022/02/23 10:10:59;;;;;;;;;;;33.20;38.30;;;;;;4977584;28;19925;-73
2022/02/23 10:13:26;;;;;;;;;;;;;;;;;;4983488;28;20340;-77
2022/02/23 10:15:53;;;;;;;;;;;;;;;;;;4980614;28;19934;-78
2022/02/23 10:18:23;;;;;;;;;;;34.30;37.30;;;;;;4982760;28;19976;-77
2022/02/23 10:20:51;;;;;;;;;;;;;;;;;;4981696;28;19926;-77
2022/02/23 10:23:18;;;;;;;;;;;;;;;;;;4984976;28;19972;-77
2022/02/23 10:25:45;;;;;;;;;;;;;;;;;;4983816;28;19930;-77
2022/02/23 10:28:14;;;;;;;;;;;34.00;36.30;;;;;;4979478;28;19932;-77
2022/02/23 10:30:41;;;;;;;;;;;;;;;;;;4978519;28;20407;-77
2022/02/23 10:33:08;;;;;;;;;;;;;;;;;;4981634;28;19936;-76
2022/02/23 10:35:34;;;;;;;;;;;;;;;;;;4985067;28;19926;-75
2022/02/23 10:38:01;;;;;;;;;;;;;;;;;;4979541;28;19929;-76
2022/02/23 10:40:28;;;;;;;;;;;;;;;;;;4979965;28;20412;-76
2022/02/23 10:42:56;;;;;;;;;;;37.40;33.50;;;;;;4989034;28;19927;-77
2022/02/23 10:45:23;;;;;;;;;;;;;;;;;;4982988;28;19935;-77
2022/02/23 10:47:50;;;;;;;;;;;;;;;;;;4985102;28;19925;-74
2022/02/23 10:50:23;;;;;;;;;;;38.80;31.30;;;;;;4983864;28;19933;-77
2022/02/23 10:52:53;;;;;;;;;;;38.80;29.00;;;;;;4984671;28;19988;-78
2022/02/23 10:55:23;;;;;;;;;;;;;;;;;;4978945;28;20293;-78
2022/02/23 10:57:50;;;;;;;;;;;;;;;;;;4983385;28;19926;-76
2022/02/23 11:00:17;;;;;;;;;;;;;;;;;;4982794;28;20445;-77
2022/02/23 11:02:44;;;;;;;;;;;;;;;;;;4987246;28;21539;-76
2022/02/23 11:05:12;;;;;;;;;;;39.00;29.30;;;;;;4986202;28;19933;-76
2022/02/23 11:07:42;;;;;;;;;;;38.20;29.00;;;;;;4982528;28;19926;-76
2022/02/23 11:10:13;;;;;;;;;;;;;;;;;;4973863;28;19973;-77
2022/02/23 11:12:41;;;;;;;;;;;38.50;28.50;;;;;;4984776;28;19925;-77
2022/02/23 11:15:08;;;;;;;;;;;;;;;;;;4981544;28;20034;-76
2022/02/23 11:17:34;;;;;;;;;;;;;;;;;;4981582;28;19926;-79
2022/02/23 11:20:01;;;;;;;;;;;;;;;;;;4974584;28;19926;-76
2022/02/23 11:22:28;;;;;;;;;;;;;;;;;;4979969;28;19933;-75
2022/02/23 11:24:57;;;;;;;;;;;;;;;;;;4981736;28;19930;-76
2022/02/23 11:27:23;;;;;;;;;;;;;;;;;;4983291;28;20008;-75
2022/02/23 11:29:50;;;;;;;;;;;;;;;;;;4964770;28;19936;-72
2022/02/23 11:32:17;;;;;;;;;;;;;;;;;;4979227;28;19933;-73
2022/02/23 11:34:44;;;;;;;;;;;;;;;;;;4982906;28;20048;-73
2022/02/23 11:37:12;;;;;;;;;;;;;;;;;;4980889;28;19926;-73
2022/02/23 11:39:39;;;;;;;;;;;;;;;;;;4993711;23;19935;-75
2022/02/23 11:42:10;;;;;;;;;;;;;;;;;;4969093;28;19926;-75
2022/02/23 11:44:39;;;;;;;;;;;;;;;;;;4964373;28;19926;-76
2022/02/23 11:47:06;;;;;;;;;;;;;;;;;;4963872;28;20037;-75
2022/02/23 11:52:17;;;;;;;;;;;;;;;;;;4971175;28;19936;-77
2022/02/23 11:54:52;;;;;;;;;;;35.80;28.90;;;;;;4960575;28;19927;-76
2022/02/23 11:57:37;;;;;;;;;;;33.60;30.30;;;;;;4968662;28;19926;-75
2022/02/23 12:00:06;;;;;;;;;;;;;;;;;;4973347;28;19934;-76
2022/02/23 12:02:32;;;;;;;;;;;34.80;29.50;;;;;;4963433;28;19926;-75
2022/02/23 12:04:59;;;;;;;;;;;35.50;29.70;;;;;;4969744;28;19926;-76
2022/02/23 12:07:26;;;;;;;;;;;;;;;;;;4957322;28;20390;-73
2022/02/23 12:09:53;;;;;;;;;;;;;;;;;;4958521;28;19930;-75
2022/02/23 12:15:06;;;;;;;;;;;35.50;28.90;;;;;;4948118;28;19953;-75
2022/02/23 12:17:46;;;;;;;;;;;33.30;30.10;;;;;;4948256;28;19938;-76
2022/02/23 12:20:27;;;;;;;;;;;34.60;29.60;;;;;;4958146;28;19938;-75
2022/02/23 12:22:54;;;;;;;;;;;;;;;;;;4970169;28;20409;-75
2022/02/23 12:25:21;;;;;;;;;;;;;;;;;;4970029;28;20383;-75
2022/02/23 12:27:56;;;;;;;;;;;35.00;29.20;;;;;;4966968;28;19937;-76
2022/02/23 12:30:23;;;;;;;;;;;;;;;;;;4964394;28;20127;-77
2022/02/23 12:32:50;;;;;;;;;;;;;;;;;;4960228;28;19925;-71
